Time;durP1;ratioP1;P1;durP2;ratioP2;P2;SDS_P1;SDS_P2;PMS_P1;PMS_P2;Temp;Humidity;BMP_temperature;BMP_pressure;BME280_temperature;BME280_humidity;BME280_pressure;Samples;Min_cycle;Max_cycle;Signal;HPM_P1;HPM_P2
2023/06/30 00:01:28;;;;;;;8.88;2.22;;;;;;;-143.48;89.63;118439.88;5053496;28;20079;-28
2023/06/30 00:03:54;;;;;;;9.52;2.50;;;;;;;-143.48;90.24;118439.88;5053731;28;20029;-28
2023/06/30 00:06:19;;;;;;;7.85;2.22;;;;;;;-143.48;90.75;118439.88;5053411;28;20029;-28
2023/06/30 00:08:45;;;;;;;11.63;2.63;;;;;;;-143.48;91.25;118439.88;5053697;28;20448;-27
2023/06/30 00:11:10;;;;;;;5.07;2.10;;;;;;;-143.48;91.09;118439.88;5053363;28;20495;-27
2023/06/30 00:13:36;;;;;;;8.20;2.45;;;;;;;-143.48;91.31;118439.88;5052994;28;20039;-28
2023/06/30 00:16:01;;;;;;;9.32;2.38;;;;;;;-143.48;91.77;118439.88;5057415;28;20445;-28
2023/06/30 00:18:26;;;;;;;9.20;2.42;;;;;;;-143.48;91.29;118439.88;5056862;28;20033;-28
2023/06/30 00:20:54;;;;;;;21.08;3.38;;;;;;;-143.48;91.51;118439.88;5057268;28;20037;-28
2023/06/30 00:23:20;;;;;;;10.52;2.42;;;;;;;-143.48;90.82;118439.88;5056868;28;20103;-28
2023/06/30 00:25:45;;;;;;;8.50;2.30;;;;;;;-143.48;90.56;118439.88;5057097;28;20044;-28
2023/06/30 00:28:10;;;;;;;8.95;2.10;;;;;;;-143.48;90.06;118439.88;5056624;28;20440;-28
2023/06/30 00:30:36;;;;;;;8.40;2.17;;;;;;;-143.48;89.53;118439.88;5070162;22;20110;-70
2023/06/30 00:33:01;;;;;;;9.95;2.42;;;;;;;-143.48;89.99;118439.88;5038791;28;20029;-71
2023/06/30 00:35:26;;;;;;;14.32;2.15;;;;;;;-143.48;91.57;118439.88;5038907;28;20077;-71
2023/06/30 00:37:52;;;;;;;9.98;2.40;;;;;;;-143.48;90.87;118439.88;5038617;28;20013;-70
2023/06/30 00:40:17;;;;;;;9.10;2.35;;;;;;;-143.48;90.75;118439.88;5038719;28;20028;-71
2023/06/30 00:42:42;;;;;;;6.80;2.35;;;;;;;-143.48;91.36;118439.88;5039019;28;20023;-70
2023/06/30 00:45:08;;;;;;;12.02;2.55;;;;;;;-143.48;91.07;118439.88;5056440;28;20103;-71
2023/06/30 00:47:34;;;;;;;8.02;2.17;;;;;;;-143.48;90.06;118439.88;5054983;28;20468;-71
2023/06/30 00:49:59;;;;;;;6.38;2.00;;;;;;;-143.48;91.27;118439.88;5056267;28;20093;-71
2023/06/30 00:52:25;;;;;;;11.80;2.30;;;;;;;-143.48;90.85;118439.88;5038429;28;20025;-71
2023/06/30 00:54:51;;;;;;;8.23;2.30;;;;;;;-143.48;91.69;118439.88;5038349;28;20491;-71
2023/06/30 00:57:16;;;;;;;8.10;2.28;;;;;;;-143.48;90.95;118439.88;5064521;28;20060;-71
2023/06/30 00:59:41;;;;;;;9.85;2.60;;;;;;;-143.48;91.60;118439.88;5039862;28;20033;-72
2023/06/30 01:02:18;;;;;;;9.10;2.83;;;;;;;-143.48;91.03;118439.88;5041928;28;20390;-71
2023/06/30 01:05:06;;;;;;;8.32;2.63;;;;;;;-143.48;91.65;118439.88;5038635;28;20028;-71
2023/06/30 01:07:53;;;;;;;8.60;2.55;;;;;;;-143.48;92.30;118439.88;5039340;28;20033;-71
2023/06/30 01:10:22;;;;;;;6.88;2.22;;;;;;;-143.48;93.79;118439.88;5037902;28;20025;-71
2023/06/30 01:12:48;;;;;;;9.43;2.60;;;;;;;-143.48;93.17;118439.88;5055948;28;20029;-71
2023/06/30 01:15:14;;;;;;;10.07;2.70;;;;;;;-143.48;93.74;118439.88;5038115;28;20122;-72
2023/06/30 01:17:48;;;;;;;8.80;2.35;;;;;;;-143.48;93.91;118439.88;5055776;28;20429;-71
2023/06/30 01:20:14;;;;;;;;;;;;;;;-143.48;92.55;118439.88;5038117;28;20543;-71
2023/06/30 01:22:58;;;;;;;6.78;2.40;;;;;;;-143.48;92.37;118439.88;5037591;28;19915;-72
2023/06/30 01:25:27;;;;;;;11.68;2.85;;;;;;;-143.48;92.65;118439.88;5037464;28;20024;-71
2023/06/30 01:27:54;;;;;;;11.57;2.53;;;;;;;-143.48;92.50;118439.88;5037324;28;20569;-71
2023/06/30 01:30:21;;;;;;;11.95;2.55;;;;;;;-143.48;91.34;118439.88;5037655;28;20044;-72
2023/06/30 01:32:50;;;;;;;11.68;2.42;;;;;;;-143.48;91.55;118439.88;5055497;28;20029;-71
2023/06/30 01:35:15;;;;;;;10.32;2.55;;;;;;;-143.48;91.13;118439.88;5037495;28;20032;-71
2023/06/30 01:37:41;;;;;;;8.43;2.15;;;;;;;-143.48;91.27;118439.88;5037256;28;20031;-71
2023/06/30 01:40:07;;;;;;;6.70;2.47;;;;;;;-143.48;91.83;118439.88;5055262;28;20021;-71
2023/06/30 01:42:34;;;;;;;5.65;2.38;;;;;;;-143.48;91.93;118439.88;5037390;28;20036;-71
2023/06/30 01:45:00;;;;;;;9.15;2.72;;;;;;;-143.48;92.65;118439.88;5038089;28;20116;-71
2023/06/30 01:47:26;;;;;;;7.97;2.80;;;;;;;-143.48;92.47;118439.88;5037791;28;20032;-71
2023/06/30 01:49:51;;;;;;;6.75;2.38;;;;;;;-143.48;92.78;118439.88;5055488;28;20508;-71
2023/06/30 01:52:18;;;;;;;5.07;2.53;;;;;;;-143.48;92.62;118439.88;5037301;28;20465;-71
2023/06/30 01:54:43;;;;;;;11.20;2.70;;;;;;;-143.48;92.47;118439.88;5037051;28;20028;-71
2023/06/30 01:57:08;;;;;;;4.90;2.28;;;;;;;-143.48;91.68;118439.88;5036822;28;20021;-72
2023/06/30 01:59:34;;;;;;;7.10;2.83;;;;;;;-143.48;92.55;118439.88;5054754;28;20085;-71
2023/06/30 02:01:59;;;;;;;9.38;2.63;;;;;;;-143.48;93.01;118439.88;5054792;28;20036;-71
2023/06/30 02:04:24;;;;;;;6.22;2.45;;;;;;;-143.48;93.28;118439.88;5054983;28;20028;-71
2023/06/30 02:06:50;;;;;;;6.95;2.50;;;;;;;-143.48;92.99;118439.88;5054940;28;20036;-71
2023/06/30 02:09:16;;;;;;;9.40;2.70;;;;;;;-143.48;93.68;118439.88;5036786;28;20013;-71
2023/06/30 02:11:41;;;;;;;9.00;2.92;;;;;;;-143.48;94.95;118439.88;5036776;28;20056;-71
2023/06/30 02:14:06;;;;;;;7.95;2.60;;;;;;;-143.48;94.76;118439.88;5036645;28;20025;-71
2023/06/30 02:16:32;;;;;;;7.55;2.50;;;;;;;-143.48;93.65;118439.88;5036975;28;20036;-71
2023/06/30 02:18:57;;;;;;;10.30;2.75;;;;;;;-143.48;93.80;118439.88;5020297;28;20025;-71
2023/06/30 02:21:25;;;;;;;11.70;2.72;;;;;;;-143.48;93.50;118439.88;5036603;28;20128;-72
2023/06/30 02:23:51;;;;;;;8.68;2.85;;;;;;;-143.48;94.07;118439.88;5036552;28;20021;-72
2023/06/30 02:26:17;;;;;;;7.10;2.50;;;;;;;-143.48;94.08;118439.88;5055153;28;20538;-71
2023/06/30 02:28:42;;;;;;;7.45;2.50;;;;;;;-143.48;93.98;118439.88;5054918;28;20029;-71
2023/06/30 02:31:08;;;;;;;6.70;2.42;;;;;;;-143.48;92.81;118439.88;5036659;28;20072;-72
2023/06/30 02:33:33;;;;;;;10.30;2.47;;;;;;;-143.48;93.09;118439.88;5036501;28;20033;-72
2023/06/30 02:35:58;;;;;;;9.13;2.50;;;;;;;-143.48;93.50;118439.88;5036556;28;20063;-71
2023/06/30 02:38:24;;;;;;;10.15;2.45;;;;;;;-143.48;94.10;118439.88;5035849;28;20052;-71
2023/06/30 02:40:49;;;;;;;5.25;2.35;;;;;;;-143.48;92.91;118439.88;5036452;28;20068;-71
2023/06/30 02:43:14;;;;;;;7.82;2.40;;;;;;;-143.48;92.91;118439.88;5036281;28;20108;-71
2023/06/30 02:45:40;;;;;;;7.85;2.28;;;;;;;-143.48;92.77;118439.88;5036376;28;20032;-71
2023/06/30 02:48:05;;;;;;;4.47;2.10;;;;;;;-143.48;92.19;118439.88;5036223;28;20025;-72
2023/06/30 02:50:31;;;;;;;7.00;2.22;;;;;;;-143.48;92.58;118439.88;5036562;28;20036;-71
2023/06/30 02:53:00;;;;;;;6.13;2.00;;;;;;;-143.48;92.60;118439.88;5036231;28;20025;-71
2023/06/30 02:55:25;;;;;;;6.85;2.15;;;;;;;-143.48;93.58;118439.88;5054101;28;20078;-72
2023/06/30 02:57:51;;;;;;;6.47;2.30;;;;;;;-143.48;92.92;118439.88;5054361;28;20155;-71
2023/06/30 03:00:17;;;;;;;6.20;2.50;;;;;;;-143.48;93.25;118439.88;5054175;28;20032;-71
2023/06/30 03:02:42;;;;;;;11.07;2.40;;;;;;;-143.48;93.16;118439.88;5036023;28;20112;-72
2023/06/30 03:05:08;;;;;;;8.65;2.50;;;;;;;-143.48;93.76;118439.88;5053899;28;20025;-72
2023/06/30 03:07:34;;;;;;;9.70;2.25;;;;;;;-143.48;94.36;118439.88;5053851;28;20021;-71
2023/06/30 03:10:00;;;;;;;7.50;2.55;;;;;;;-143.48;94.07;118439.88;5035890;28;20025;-72
2023/06/30 03:12:26;;;;;;;8.23;2.30;;;;;;;-143.48;94.34;118439.88;5035861;28;20369;-72
2023/06/30 03:14:51;;;;;;;8.70;2.95;;;;;;;-143.48;94.23;118439.88;5053716;28;20036;-71
2023/06/30 03:17:16;;;;;;;5.13;2.03;;;;;;;-143.48;94.43;118439.88;5053578;28;20033;-71
2023/06/30 03:19:42;;;;;;;7.22;2.10;;;;;;;-143.48;93.32;118439.88;5053988;28;20025;-71
2023/06/30 03:22:07;;;;;;;6.85;2.28;;;;;;;-143.48;93.28;118439.88;5035874;28;20435;-71
2023/06/30 03:24:33;;;;;;;9.35;2.33;;;;;;;-143.48;93.90;118439.88;5053545;28;20029;-71
2023/06/30 03:26:58;;;;;;;3.90;1.95;;;;;;;-143.48;93.21;118439.88;5035658;28;20095;-72
2023/06/30 03:29:23;;;;;;;3.88;1.98;;;;;;;-143.48;93.57;118439.88;5035580;28;20454;-71
2023/06/30 03:31:49;;;;;;;8.38;2.30;;;;;;;-143.48;93.45;118439.88;5035642;28;20036;-72
2023/06/30 03:34:14;;;;;;;3.40;1.90;;;;;;;-143.48;92.66;118439.88;5053594;28;20024;-71
2023/06/30 03:36:40;;;;;;;6.45;2.10;;;;;;;-143.48;92.98;118439.88;5058016;28;20066;-72
2023/06/30 03:39:05;;;;;;;6.55;2.10;;;;;;;-143.48;91.80;118439.88;5035930;28;20021;-71
2023/06/30 03:41:31;;;;;;;9.88;2.25;;;;;;;-143.48;92.49;118439.88;5053511;28;20079;-71
2023/06/30 03:43:56;;;;;;;7.53;2.20;;;;;;;-143.48;93.40;118439.88;5035403;28;20029;-71
2023/06/30 03:46:22;;;;;;;12.88;2.70;;;;;;;-143.48;94.16;118439.88;5035462;28;20032;-72
2023/06/30 03:48:47;;;;;;;5.88;2.47;;;;;;;-143.48;92.86;118439.88;5035113;28;20017;-71
2023/06/30 03:51:12;;;;;;;5.93;2.20;;;;;;;-143.48;93.03;118439.88;5053296;28;20476;-71
2023/06/30 03:53:38;;;;;;;8.55;2.30;;;;;;;-143.48;92.78;118439.88;5035430;28;20024;-71
2023/06/30 03:56:03;;;;;;;6.60;2.10;;;;;;;-143.48;93.67;118439.88;5035312;28;20365;-71
2023/06/30 03:58:31;;;;;;;8.55;2.47;;;;;;;-143.48;93.15;118439.88;5053118;28;20103;-71
2023/06/30 04:00:56;;;;;;;6.72;2.05;;;;;;;-143.48;93.22;118439.88;5053559;28;20029;-72
2023/06/30 04:03:21;;;;;;;6.18;2.30;;;;;;;-143.48;92.83;118439.88;5053536;28;20534;-72
2023/06/30 04:05:47;;;;;;;8.10;2.47;;;;;;;-143.48;92.25;118439.88;5035516;28;20112;-71
2023/06/30 04:08:12;;;;;;;5.45;2.30;;;;;;;-143.48;92.17;118439.88;5035289;28;20024;-72
2023/06/30 04:10:37;;;;;;;8.80;2.40;;;;;;;-143.48;92.45;118439.88;5035146;28;20028;-72
2023/06/30 04:13:06;;;;;;;8.63;2.20;;;;;;;-143.48;93.08;118439.88;5035242;28;20085;-71
2023/06/30 04:15:32;;;;;;;12.63;2.33;;;;;;;-143.48;93.98;118439.88;5053457;28;20028;-71
2023/06/30 04:17:57;;;;;;;7.35;2.17;;;;;;;-143.48;93.47;118439.88;5035569;28;20124;-72
2023/06/30 04:20:22;;;;;;;6.50;2.03;;;;;;;-143.48;93.07;118439.88;5035047;28;20037;-72
2023/06/30 04:22:48;;;;;;;5.15;2.03;;;;;;;-143.48;92.47;118439.88;5035173;28;20542;-71
2023/06/30 04:25:13;;;;;;;9.63;2.20;;;;;;;-143.48;93.12;118439.88;5035223;28;20027;-71
2023/06/30 04:27:39;;;;;;;5.47;2.17;;;;;;;-143.48;92.84;118439.88;5035254;28;20021;-71
2023/06/30 04:30:07;;;;;;;7.32;2.40;;;;;;;-143.48;93.46;118439.88;5052658;28;20116;-72
2023/06/30 04:32:32;;;;;;;10.82;2.33;;;;;;;-143.48;93.42;118439.88;5034958;28;20056;-71
2023/06/30 04:34:58;;;;;;;4.88;2.05;;;;;;;-143.48;92.78;118439.88;5035033;28;20056;-71
2023/06/30 04:37:23;;;;;;;7.70;2.38;;;;;;;-143.48;93.16;118439.88;5034921;28;20040;-72
2023/06/30 04:39:50;;;;;;;9.57;2.38;;;;;;;-143.48;93.74;118439.88;5034914;28;20471;-72
2023/06/30 04:42:16;;;;;;;8.50;2.40;;;;;;;-143.48;93.21;118439.88;5052644;28;20112;-71
2023/06/30 04:44:41;;;;;;;7.22;2.42;;;;;;;-143.48;92.89;118439.88;5034891;28;20391;-71
2023/06/30 04:47:07;;;;;;;5.07;1.95;;;;;;;-143.48;92.07;118439.88;5034750;28;20119;-71
2023/06/30 04:49:32;;;;;;;6.05;2.17;;;;;;;-143.48;91.64;118439.88;5034867;28;20035;-71
2023/06/30 04:51:58;;;;;;;6.45;2.30;;;;;;;-143.48;91.20;118439.88;5052668;28;20079;-71
2023/06/30 04:54:23;;;;;;;9.30;2.05;;;;;;;-143.48;90.81;118439.88;5034831;28;20025;-71
2023/06/30 04:56:49;;;;;;;8.05;2.15;;;;;;;-143.48;90.55;118439.88;5052576;28;20067;-71
2023/06/30 04:59:14;;;;;;;8.02;2.15;;;;;;;-143.48;89.58;118439.88;5054245;28;20028;-71
2023/06/30 05:01:40;;;;;;;5.57;2.08;;;;;;;-143.48;88.79;118439.88;5043908;28;20025;-73
2023/06/30 05:04:06;;;;;;;5.60;2.30;;;;;;;-143.48;89.77;118439.88;5079780;28;20040;-71
2023/06/30 05:06:31;;;;;;;6.55;2.08;;;;;;;-143.48;88.99;118439.88;5053104;28;20033;-72
2023/06/30 05:08:56;;;;;;;5.80;2.03;;;;;;;-143.48;88.28;118439.88;5040338;28;20071;-72
2023/06/30 05:11:22;;;;;;;6.25;1.92;;;;;;;-143.48;90.13;118439.88;5038473;28;20025;-71
2023/06/30 05:13:47;;;;;;;8.55;2.33;;;;;;;-143.48;89.92;118439.88;5038260;28;20039;-72
2023/06/30 05:16:12;;;;;;;5.68;2.10;;;;;;;-143.48;88.58;118439.88;5039302;28;20099;-71
2023/06/30 05:18:38;;;;;;;6.65;1.90;;;;;;;-143.48;87.44;118439.88;5037960;28;20026;-71
2023/06/30 05:21:05;;;;;;;9.07;2.15;;;;;;;-143.48;86.40;118439.88;5038767;28;20088;-72
2023/06/30 05:23:31;;;;;;;8.55;2.20;;;;;;;-143.48;85.99;118439.88;5056067;28;20040;-72
2023/06/30 05:25:58;;;;;;;9.35;2.00;;;;;;;-143.48;85.36;118439.88;5038252;28;20020;-72
2023/06/30 05:28:24;;;;;;;5.78;2.10;;;;;;;-143.48;85.38;118439.88;5055930;28;20358;-72
2023/06/30 05:30:49;;;;;;;5.60;2.00;;;;;;;-143.48;86.82;118439.88;5039234;28;20072;-72
2023/06/30 05:33:14;;;;;;;7.20;2.10;;;;;;;-143.48;85.79;118439.88;5057588;28;20032;-72
2023/06/30 05:35:40;;;;;;;6.35;2.08;;;;;;;-143.48;78.94;118439.88;5037575;28;20032;-71
2023/06/30 05:38:05;;;;;;;6.35;2.08;;;;;;;-143.48;71.75;118439.88;5056023;28;20032;-72
2023/06/30 05:40:30;;;;;;;6.57;1.63;;;;;;;-143.48;60.05;118439.88;5055492;28;20223;-72
2023/06/30 05:42:56;;;;;;;8.15;1.75;;;;;;;-143.48;59.12;118439.88;5037568;28;20111;-72
2023/06/30 05:45:22;;;;;;;3.53;1.55;;;;;;;-143.48;54.60;118439.88;5037624;28;20496;-72
2023/06/30 05:47:47;;;;;;;4.72;1.70;;;;;;;-143.48;56.79;118439.88;5037889;28;20028;-72
2023/06/30 05:50:12;;;;;;;7.38;1.80;;;;;;;-143.48;52.85;118439.88;5037813;28;20418;-74
2023/06/30 05:52:38;;;;;;;5.25;1.92;;;;;;;-143.48;52.03;118439.88;5055756;28;20069;-72
2023/06/30 05:55:04;;;;;;;10.00;1.90;;;;;;;-143.48;50.66;118439.88;5037526;28;20053;-73
2023/06/30 05:57:29;;;;;;;6.03;1.70;;;;;;;-143.48;50.47;118439.88;5038474;28;20017;-73
2023/06/30 05:59:55;;;;;;;11.05;2.25;;;;;;;-143.48;50.75;118439.88;5037816;28;20039;-73
2023/06/30 06:02:20;;;;;;;7.22;1.60;;;;;;;-143.48;49.05;118439.88;5021287;28;20029;-73
2023/06/30 06:04:46;;;;;;;6.25;1.70;;;;;;;-143.48;54.07;118439.88;5055742;28;20071;-73
2023/06/30 06:07:11;;;;;;;4.53;1.48;;;;;;;-143.48;52.44;118439.88;5055470;28;20040;-73
2023/06/30 06:09:37;;;;;;;9.80;1.92;;;;;;;-143.48;52.25;118439.88;5038525;28;20017;-70
2023/06/30 06:12:03;;;;;;;6.60;1.65;;;;;;;-143.48;49.91;118439.88;5037197;28;20067;-72
2023/06/30 06:14:28;;;;;;;9.00;1.70;;;;;;;-143.48;51.16;118439.88;5037108;28;20028;-72
2023/06/30 06:16:54;;;;;;;5.57;1.80;;;;;;;-143.48;51.79;118439.88;5037109;28;20021;-72
2023/06/30 06:19:20;;;;;;;7.25;1.67;;;;;;;-143.48;49.41;118439.88;5037927;28;20115;-72
2023/06/30 06:21:49;;;;;;;11.85;1.63;;;;;;;-143.48;49.08;118439.88;5036851;28;20079;-72
2023/06/30 06:24:17;;;;;;;7.07;1.45;;;;;;;-143.48;48.77;118439.88;5036725;28;20031;-72
2023/06/30 06:26:43;;;;;;;6.43;1.90;;;;;;;-143.48;46.37;118439.88;5071169;28;20036;-71
2023/06/30 06:29:08;;;;;;;10.27;1.92;;;;;;;-143.48;45.51;118439.88;5050974;28;20033;-73
2023/06/30 06:31:34;;;;;;;8.25;1.88;;;;;;;-143.48;46.81;118439.88;5054635;28;20408;-72
2023/06/30 06:33:59;;;;;;;5.82;1.67;;;;;;;-143.48;45.75;118439.88;5036863;28;20338;-72
2023/06/30 06:36:24;;;;;;;8.98;1.90;;;;;;;-143.48;48.02;118439.88;5054757;28;20024;-72
2023/06/30 06:38:50;;;;;;;5.82;1.77;;;;;;;-143.48;46.70;118439.88;5037167;28;20024;-72
2023/06/30 06:41:15;;;;;;;8.75;1.95;;;;;;;-143.48;48.38;118439.88;5036617;28;20025;-73
2023/06/30 06:43:42;;;;;;;7.07;1.63;;;;;;;-143.48;47.83;118439.88;5036836;28;20033;-72
2023/06/30 06:46:07;;;;;;;7.95;1.67;;;;;;;-143.48;48.79;118439.88;5036632;28;20032;-73
2023/06/30 06:48:33;;;;;;;7.63;1.55;;;;;;;-143.48;49.76;118439.88;5037397;28;20048;-72
2023/06/30 06:51:00;;;;;;;5.35;1.55;;;;;;;-143.48;50.74;118439.88;5036782;28;20028;-73
2023/06/30 06:53:28;;;;;;;5.07;1.45;;;;;;;-143.48;47.90;118439.88;5036443;28;20032;-73
2023/06/30 06:55:54;;;;;;;8.98;1.90;;;;;;;-143.48;51.23;118439.88;5040058;28;20040;-72
2023/06/30 06:58:20;;;;;;;8.43;1.85;;;;;;;-143.48;48.88;118439.88;5039289;28;20032;-71
2023/06/30 07:00:48;;;;;;;5.43;1.52;;;;;;;-143.48;49.76;118439.88;5036407;28;20032;-72
2023/06/30 07:03:14;;;;;;;5.63;1.60;;;;;;;-143.48;48.31;118439.88;5020638;28;20025;-72
2023/06/30 07:05:41;;;;;;;5.43;1.50;;;;;;;-143.48;48.88;118439.88;5054608;28;20021;-72
2023/06/30 07:08:07;;;;;;;8.85;1.77;;;;;;;-143.48;48.58;118439.88;5036581;28;20056;-72
2023/06/30 07:10:32;;;;;;;4.15;1.50;;;;;;;-143.48;49.41;118439.88;5054617;28;20123;-72
2023/06/30 07:12:58;;;;;;;8.77;1.80;;;;;;;-143.48;48.14;118439.88;5036781;28;20430;-72
2023/06/30 07:15:24;;;;;;;7.88;1.52;;;;;;;-143.48;49.78;118439.88;5036086;28;20124;-72
2023/06/30 07:17:49;;;;;;;6.50;1.73;;;;;;;-143.48;48.50;118439.88;5054326;28;20021;-72
2023/06/30 07:20:14;;;;;;;3.83;1.40;;;;;;;-143.48;48.80;118439.88;5054610;28;20461;-73
2023/06/30 07:22:40;;;;;;;4.47;1.50;;;;;;;-143.48;46.13;118439.88;5053877;28;20033;-72
2023/06/30 07:25:07;;;;;;;8.10;1.90;;;;;;;-143.48;47.12;118439.88;5035579;28;20064;-72
2023/06/30 07:27:32;;;;;;;5.40;1.67;;;;;;;-143.48;46.54;118439.88;5054125;28;20706;-72
2023/06/30 07:29:58;;;;;;;6.35;1.83;;;;;;;-143.48;45.35;118439.88;5042688;28;20069;-72
2023/06/30 07:32:23;;;;;;;7.78;1.55;;;;;;;-143.48;45.80;118439.88;5055492;28;20032;-72
2023/06/30 07:34:49;;;;;;;7.20;1.67;;;;;;;-143.48;45.52;118439.88;5055325;28;20032;-72
2023/06/30 07:37:14;;;;;;;5.65;1.80;;;;;;;-143.48;44.84;118439.88;5038613;28;20079;-73
2023/06/30 07:39:39;;;;;;;8.07;1.75;;;;;;;-143.48;47.11;118439.88;5040100;28;20032;-73
2023/06/30 07:42:05;;;;;;;4.40;1.60;;;;;;;-143.48;45.05;118439.88;5037530;28;20023;-73
2023/06/30 07:44:31;;;;;;;8.82;2.20;;;;;;;-143.48;45.72;118439.88;5037727;28;20112;-73
2023/06/30 07:46:56;;;;;;;5.13;1.50;;;;;;;-143.48;44.83;118439.88;5037202;28;20499;-73
2023/06/30 07:49:22;;;;;;;7.40;1.80;;;;;;;-143.48;46.05;118439.88;5056148;28;20032;-71
2023/06/30 07:51:50;;;;;;;4.30;1.70;;;;;;;-143.48;43.34;118439.88;5055383;28;20028;-73
2023/06/30 07:54:15;;;;;;;3.95;1.52;;;;;;;-143.48;45.46;118439.88;5055068;28;20021;-73
2023/06/30 07:56:41;;;;;;;3.72;1.50;;;;;;;-143.48;43.14;118439.88;5054145;28;20514;-73
2023/06/30 07:59:07;;;;;;;5.53;1.83;;;;;;;-143.48;44.59;118439.88;5054034;28;20017;-73
2023/06/30 08:01:32;;;;;;;7.40;2.13;;;;;;;-143.48;45.40;118439.88;5055749;28;20037;-72
2023/06/30 08:03:57;;;;;;;11.05;1.80;;;;;;;-143.48;44.85;118439.88;5054479;28;20025;-72
2023/06/30 08:06:23;;;;;;;5.20;1.88;;;;;;;-143.48;44.12;118439.88;5053357;28;20029;-73
2023/06/30 08:08:48;;;;;;;6.18;1.80;;;;;;;-143.48;43.93;118439.88;5036389;28;20021;-71
2023/06/30 08:11:13;;;;;;;5.07;1.70;;;;;;;-143.48;44.27;118439.88;5036943;28;20025;-72
2023/06/30 08:13:39;;;;;;;5.68;1.73;;;;;;;-143.48;44.74;118439.88;5036265;28;20055;-72
2023/06/30 08:16:04;;;;;;;5.13;1.70;;;;;;;-143.48;42.67;118439.88;5054794;28;20036;-72
2023/06/30 08:18:29;;;;;;;6.75;1.90;;;;;;;-143.48;43.82;118439.88;5035044;28;20031;-72
2023/06/30 08:20:58;;;;;;;6.60;1.90;;;;;;;-143.48;44.45;118439.88;5035883;28;20021;-72
2023/06/30 08:23:25;;;;;;;3.92;1.70;;;;;;;-143.48;44.28;118439.88;5053841;28;20432;-72
2023/06/30 08:25:53;;;;;;;8.52;1.77;;;;;;;-143.48;44.70;118439.88;5053847;28;20487;-71
2023/06/30 08:28:18;;;;;;;5.28;1.90;;;;;;;-143.48;45.19;118439.88;5036030;28;20552;-71
2023/06/30 08:30:44;;;;;;;5.25;1.77;;;;;;;-143.48;44.17;118439.88;5034925;28;20072;-72
2023/06/30 08:33:09;;;;;;;5.75;1.77;;;;;;;-143.48;41.74;118439.88;5035291;28;20115;-72
2023/06/30 08:35:34;;;;;;;5.90;1.90;;;;;;;-143.48;43.08;118439.88;5035334;28;20029;-72
2023/06/30 08:38:00;;;;;;;7.60;1.90;;;;;;;-143.48;42.99;118439.88;5040977;28;20029;-72
2023/06/30 08:40:29;;;;;;;6.90;1.73;;;;;;;-143.48;42.33;118439.88;5057957;28;20079;-72
2023/06/30 08:42:55;;;;;;;7.38;1.70;;;;;;;-143.48;43.27;118439.88;5040512;28;20025;-72
2023/06/30 08:45:25;;;;;;;6.00;1.83;;;;;;;-143.48;42.06;118439.88;5039580;28;20021;-73
2023/06/30 08:47:51;;;;;;;4.55;1.63;;;;;;;-143.48;43.60;118439.88;5023738;28;20035;-72
2023/06/30 08:50:16;;;;;;;6.70;1.70;;;;;;;-143.48;44.45;118439.88;5042660;28;20423;-71
2023/06/30 08:52:43;;;;;;;7.85;1.70;;;;;;;-143.48;44.27;118439.88;5040386;28;20029;-72
2023/06/30 08:55:09;;;;;;;6.70;1.92;;;;;;;-143.48;43.00;118439.88;5039313;28;20086;-72
2023/06/30 08:57:35;;;;;;;4.65;1.63;;;;;;;-143.48;42.86;118439.88;5039139;28;20439;-72
2023/06/30 09:00:00;;;;;;;9.77;1.55;;;;;;;-143.48;42.00;118439.88;5056982;28;20025;-72
2023/06/30 09:02:26;;;;;;;4.25;1.60;;;;;;;-143.48;42.14;118439.88;5038994;28;20020;-73
2023/06/30 09:04:51;;;;;;;7.38;2.00;;;;;;;-143.48;42.19;118439.88;5039366;28;20028;-71
2023/06/30 09:07:25;;;;;;;5.90;1.80;;;;;;;-143.48;40.81;118439.88;5057462;28;20028;-72
2023/06/30 09:09:57;;;;;;;8.48;2.20;;;;;;;-143.48;42.99;118439.88;5057016;28;20025;-71
2023/06/30 09:12:24;;;;;;;7.05;1.80;;;;;;;-143.48;42.44;118439.88;5038616;28;20040;-72
2023/06/30 09:14:51;;;;;;;6.13;1.98;;;;;;;-143.48;43.60;118439.88;5039617;28;20027;-72
2023/06/30 09:17:17;;;;;;;6.28;2.00;;;;;;;-143.48;41.10;118439.88;5038840;28;20480;-72
2023/06/30 09:19:44;;;;;;;6.97;2.05;;;;;;;-143.48;41.80;118439.88;5041535;28;20032;-73
2023/06/30 09:22:10;;;;;;;6.05;1.90;;;;;;;-143.48;41.53;118439.88;5057636;28;20029;-72
2023/06/30 09:24:36;;;;;;;4.20;1.80;;;;;;;-143.48;40.87;118439.88;5040366;28;20479;-72
2023/06/30 09:27:01;;;;;;;4.95;2.10;;;;;;;-143.48;41.44;118439.88;5059364;28;20040;-72
2023/06/30 09:29:32;;;;;;;3.40;1.73;;;;;;;-143.48;40.84;118439.88;5039491;28;20108;-73
2023/06/30 09:32:01;;;;;;;5.20;1.90;;;;;;;-143.48;38.85;118439.88;5040293;28;20049;-71
2023/06/30 09:34:26;;;;;;;4.10;1.60;;;;;;;-143.48;41.25;118439.88;5039440;28;20115;-74
2023/06/30 09:36:53;;;;;;;9.32;1.90;;;;;;;-143.48;40.54;118439.88;5057437;28;20448;-72
2023/06/30 09:39:19;;;;;;;4.95;2.03;;;;;;;-143.48;40.51;118439.88;5057240;28;20027;-72
2023/06/30 09:41:47;;;;;;;6.57;1.85;;;;;;;-143.48;42.07;118439.88;5038451;28;20029;-72
2023/06/30 09:44:14;;;;;;;5.78;1.95;;;;;;;-143.48;41.80;118439.88;5038646;28;20028;-71
2023/06/30 09:46:46;;;;;;;6.00;1.90;;;;;;;-143.48;41.45;118439.88;5058442;28;20023;-71
2023/06/30 09:49:32;;;;;;;4.47;1.70;;;;;;;-143.48;40.80;118439.88;5039534;28;20200;-72
2023/06/30 09:51:59;;;;;;;4.22;1.73;;;;;;;-143.48;39.62;118439.88;5040009;28;20032;-71
2023/06/30 09:54:25;;;;;;;4.82;1.50;;;;;;;-143.48;41.77;118439.88;5042347;28;20029;-71
2023/06/30 09:57:02;;;;;;;7.22;1.92;;;;;;;-143.48;41.91;118439.88;5039960;28;20035;-72
2023/06/30 09:59:28;;;;;;;7.15;1.77;;;;;;;-143.48;42.43;118439.88;5039635;28;20040;-73
2023/06/30 10:01:58;;;;;;;5.57;1.98;;;;;;;-143.48;42.84;118439.88;5038154;28;20029;-71
2023/06/30 10:04:25;;;;;;;6.85;2.30;;;;;;;-143.48;42.57;118439.88;5021170;28;20079;-72
2023/06/30 10:06:51;;;;;;;5.40;2.00;;;;;;;-143.48;42.73;118439.88;5055448;28;20095;-72
2023/06/30 10:09:20;;;;;;;5.50;2.00;;;;;;;-143.48;42.38;118439.88;5055378;28;20032;-72
2023/06/30 10:11:50;;;;;;;8.18;2.13;;;;;;;-143.48;41.63;118439.88;5037375;28;20542;-72
2023/06/30 10:14:18;;;;;;;6.30;2.28;;;;;;;-143.48;41.88;118439.88;5037627;28;20021;-72
2023/06/30 10:16:46;;;;;;;8.25;2.20;;;;;;;-143.48;42.21;118439.88;5037927;28;20094;-72
2023/06/30 10:19:12;;;;;;;5.40;1.88;;;;;;;-143.48;42.07;118439.88;5055049;28;20025;-72
2023/06/30 10:21:37;;;;;;;6.25;1.90;;;;;;;-143.48;41.29;118439.88;5055322;28;20032;-72
2023/06/30 10:24:03;;;;;;;7.63;1.60;;;;;;;-143.48;41.06;118439.88;5036926;28;20024;-72
2023/06/30 10:26:33;;;;;;;5.05;2.03;;;;;;;-143.48;38.60;118439.88;5037004;28;20060;-72
2023/06/30 10:28:59;;;;;;;5.22;2.15;;;;;;;-143.48;40.98;118439.88;5037298;28;20143;-73
2023/06/30 10:31:26;;;;;;;6.22;1.98;;;;;;;-143.48;39.55;118439.88;5055117;28;20564;-71
2023/06/30 10:33:51;;;;;;;5.63;2.15;;;;;;;-143.48;38.73;118439.88;5055124;28;20412;-72
2023/06/30 10:36:18;;;;;;;5.15;2.17;;;;;;;-143.48;38.69;118439.88;5037460;28;20036;-72
2023/06/30 10:38:46;;;;;;;8.95;2.35;;;;;;;-143.48;38.14;118439.88;5036614;28;20397;-73
2023/06/30 10:41:13;;;;;;;7.00;2.13;;;;;;;-143.48;39.24;118439.88;5055335;28;20027;-72
2023/06/30 10:44:20;;;;;;;3.80;2.20;;;;;;;-143.48;40.29;118439.88;5037361;28;20032;-72
2023/06/30 10:46:49;;;;;;;4.63;2.10;;;;;;;-143.48;38.82;118439.88;4939353;29;20078;-72
2023/06/30 10:49:29;;;;;;;8.38;2.67;;;;;;;-143.48;38.45;118439.88;4955336;29;20027;-72
2023/06/30 10:51:56;;;;;;;8.63;2.10;;;;;;;-143.48;39.42;118439.88;4998312;28;20043;-71
2023/06/30 10:54:21;;;;;;;6.60;2.58;;;;;;;-143.48;39.32;118439.88;5054581;28;20143;-73
2023/06/30 10:57:36;;;;;;;9.27;2.60;;;;;;;-143.48;40.46;118439.88;5054493;28;20100;-73
2023/06/30 11:00:07;;;;;;;4.32;1.95;;;;;;;-143.48;41.37;118439.88;5032836;28;20044;-71
2023/06/30 11:02:51;;;;;;;5.03;1.90;;;;;;;-143.48;42.16;118439.88;5054253;28;20024;-72
2023/06/30 11:05:28;;;;;;;6.60;2.33;;;;;;;-143.48;38.98;118439.88;5054281;28;20021;-73
2023/06/30 11:08:03;;;;;;;4.15;1.83;;;;;;;-143.48;39.99;118439.88;5054106;28;20032;-73